sensor_id;sensor_type;location;lat;lon;timestamp;P1;durP1;ratioP1;P2;durP2;ratioP2
215;SDS011;70668;48.81286795;9.14184224;2024-02-23T00:01:59;2.53;;;1.00;;
215;SDS011;70668;48.81286795;9.14184224;2024-02-23T00:04:27;2.30;;;1.10;;
215;SDS011;70668;48.81286795;9.14184224;2024-02-23T00:06:58;5.20;;;1.10;;
215;SDS011;70668;48.81286795;9.14184224;2024-02-23T00:09:28;2.00;;;1.10;;
215;SDS011;70668;48.81286795;9.14184224;2024-02-23T00:11:56;2.10;;;1.10;;
215;SDS011;70668;48.81286795;9.14184224;2024-02-23T00:14:25;2.80;;;1.10;;
215;SDS011;70668;48.81286795;9.14184224;2024-02-23T00:16:55;3.40;;;1.10;;
215;SDS011;70668;48.81286795;9.14184224;2024-02-23T00:19:24;3.53;;;1.03;;
215;SDS011;70668;48.81286795;9.14184224;2024-02-23T00:21:52;2.83;;;1.20;;
215;SDS011;70668;48.81286795;9.14184224;2024-02-23T00:24:23;2.60;;;1.03;;
215;SDS011;70668;48.81286795;9.14184224;2024-02-23T00:26:52;2.97;;;1.10;;
215;SDS011;70668;48.81286795;9.14184224;2024-02-23T00:29:20;3.10;;;1.10;;
215;SDS011;70668;48.81286795;9.14184224;2024-02-23T00:31:49;4.07;;;1.37;;
215;SDS011;70668;48.81286795;9.14184224;2024-02-23T00:34:17;3.27;;;1.20;;
215;SDS011;70668;48.81286795;9.14184224;2024-02-23T00:36:46;3.50;;;1.30;;
215;SDS011;70668;48.81286795;9.14184224;2024-02-23T00:39:15;3.00;;;1.40;;
215;SDS011;70668;48.81286795;9.14184224;2024-02-23T00:41:46;2.70;;;1.20;;
215;SDS011;70668;48.81286795;9.14184224;2024-02-23T00:44:14;7.53;;;1.70;;
215;SDS011;70668;48.81286795;9.14184224;2024-02-23T00:46:43;3.27;;;1.60;;
215;SDS011;70668;48.81286795;9.14184224;2024-02-23T00:49:11;2.47;;;1.10;;
215;SDS011;70668;48.81286795;9.14184224;2024-02-23T00:51:40;3.87;;;1.37;;
215;SDS011;70668;48.81286795;9.14184224;2024-02-23T00:54:08;3.07;;;1.20;;
215;SDS011;70668;48.81286795;9.14184224;2024-02-23T00:56:37;5.83;;;1.30;;
215;SDS011;70668;48.81286795;9.14184224;2024-02-23T00:59:08;4.23;;;1.30;;
215;SDS011;70668;48.81286795;9.14184224;2024-02-23T01:01:34;3.27;;;1.27;;
215;SDS011;70668;48.81286795;9.14184224;2024-02-23T01:04:02;6.93;;;1.37;;
215;SDS011;70668;48.81286795;9.14184224;2024-02-23T01:06:31;3.83;;;1.30;;
215;SDS011;70668;48.81286795;9.14184224;2024-02-23T01:09:00;2.40;;;1.10;;
215;SDS011;70668;48.81286795;9.14184224;2024-02-23T01:11:29;4.83;;;1.80;;
215;SDS011;70668;48.81286795;9.14184224;2024-02-23T01:13:58;4.53;;;1.23;;
215;SDS011;70668;48.81286795;9.14184224;2024-02-23T01:16:29;6.00;;;1.10;;
215;SDS011;70668;48.81286795;9.14184224;2024-02-23T01:18:58;3.57;;;1.47;;
215;SDS011;70668;48.81286795;9.14184224;2024-02-23T01:21:28;3.60;;;1.20;;
215;SDS011;70668;48.81286795;9.14184224;2024-02-23T01:23:56;3.80;;;1.50;;
215;SDS011;70668;48.81286795;9.14184224;2024-02-23T01:26:25;4.87;;;1.63;;
215;SDS011;70668;48.81286795;9.14184224;2024-02-23T01:28:54;5.27;;;1.40;;
215;SDS011;70668;48.81286795;9.14184224;2024-02-23T01:31:23;3.10;;;1.20;;
215;SDS011;70668;48.81286795;9.14184224;2024-02-23T01:33:54;4.17;;;1.20;;
215;SDS011;70668;48.81286795;9.14184224;2024-02-23T01:36:22;4.63;;;1.50;;
215;SDS011;70668;48.81286795;9.14184224;2024-02-23T01:38:51;6.53;;;2.03;;
215;SDS011;70668;48.81286795;9.14184224;2024-02-23T01:41:20;5.10;;;1.30;;
215;SDS011;70668;48.81286795;9.14184224;2024-02-23T01:43:48;5.00;;;1.50;;
215;SDS011;70668;48.81286795;9.14184224;2024-02-23T01:46:17;4.20;;;1.40;;
215;SDS011;70668;48.81286795;9.14184224;2024-02-23T01:48:46;4.17;;;1.33;;
215;SDS011;70668;48.81286795;9.14184224;2024-02-23T01:51:17;4.27;;;1.40;;
215;SDS011;70668;48.81286795;9.14184224;2024-02-23T01:53:46;4.53;;;1.30;;
215;SDS011;70668;48.81286795;9.14184224;2024-02-23T01:56:14;4.20;;;1.30;;
215;SDS011;70668;48.81286795;9.14184224;2024-02-23T01:58:45;3.70;;;1.30;;
215;SDS011;70668;48.81286795;9.14184224;2024-02-23T02:01:14;4.20;;;1.53;;
215;SDS011;70668;48.81286795;9.14184224;2024-02-23T02:03:43;5.90;;;1.50;;
215;SDS011;70668;48.81286795;9.14184224;2024-02-23T02:06:11;5.07;;;1.40;;
215;SDS011;70668;48.81286795;9.14184224;2024-02-23T02:08:43;4.13;;;1.40;;
215;SDS011;70668;48.81286795;9.14184224;2024-02-23T02:11:11;5.53;;;1.40;;
215;SDS011;70668;48.81286795;9.14184224;2024-02-23T02:13:40;4.90;;;1.40;;
215;SDS011;70668;48.81286795;9.14184224;2024-02-23T02:16:08;2.83;;;1.30;;
215;SDS011;70668;48.81286795;9.14184224;2024-02-23T02:18:37;4.00;;;1.50;;
215;SDS011;70668;48.81286795;9.14184224;2024-02-23T02:21:03;4.27;;;1.50;;
215;SDS011;70668;48.81286795;9.14184224;2024-02-23T02:23:32;6.10;;;1.60;;
215;SDS011;70668;48.81286795;9.14184224;2024-02-23T02:26:05;5.07;;;1.60;;
215;SDS011;70668;48.81286795;9.14184224;2024-02-23T02:28:33;4.53;;;1.50;;
215;SDS011;70668;48.81286795;9.14184224;2024-02-23T02:31:03;2.77;;;1.33;;
215;SDS011;70668;48.81286795;9.14184224;2024-02-23T02:33:31;3.33;;;1.40;;
215;SDS011;70668;48.81286795;9.14184224;2024-02-23T02:36:00;7.07;;;1.70;;
215;SDS011;70668;48.81286795;9.14184224;2024-02-23T02:38:28;3.87;;;1.40;;
215;SDS011;70668;48.81286795;9.14184224;2024-02-23T02:40:58;7.43;;;1.40;;
215;SDS011;70668;48.81286795;9.14184224;2024-02-23T02:43:30;4.27;;;1.40;;
215;SDS011;70668;48.81286795;9.14184224;2024-02-23T02:45:59;4.00;;;1.40;;
215;SDS011;70668;48.81286795;9.14184224;2024-02-23T02:48:27;3.77;;;1.70;;
215;SDS011;70668;48.81286795;9.14184224;2024-02-23T02:50:56;4.43;;;1.40;;
215;SDS011;70668;48.81286795;9.14184224;2024-02-23T02:53:24;4.20;;;1.33;;
215;SDS011;70668;48.81286795;9.14184224;2024-02-23T02:55:53;4.27;;;1.30;;
215;SDS011;70668;48.81286795;9.14184224;2024-02-23T02:58:21;2.93;;;1.23;;
215;SDS011;70668;48.81286795;9.14184224;2024-02-23T03:00:53;3.07;;;1.27;;
215;SDS011;70668;48.81286795;9.14184224;2024-02-23T03:03:21;3.50;;;1.30;;
215;SDS011;70668;48.81286795;9.14184224;2024-02-23T03:05:50;4.97;;;1.50;;
215;SDS011;70668;48.81286795;9.14184224;2024-02-23T03:08:18;5.47;;;1.63;;
215;SDS011;70668;48.81286795;9.14184224;2024-02-23T03:10:47;3.23;;;1.40;;
215;SDS011;70668;48.81286795;9.14184224;2024-02-23T03:13:15;4.60;;;1.40;;
215;SDS011;70668;48.81286795;9.14184224;2024-02-23T03:15:44;4.20;;;1.30;;
215;SDS011;70668;48.81286795;9.14184224;2024-02-23T03:18:15;4.97;;;1.60;;
215;SDS011;70668;48.81286795;9.14184224;2024-02-23T03:20:44;3.40;;;1.50;;
215;SDS011;70668;48.81286795;9.14184224;2024-02-23T03:23:17;3.70;;;1.40;;
215;SDS011;70668;48.81286795;9.14184224;2024-02-23T03:25:46;2.80;;;1.30;;
215;SDS011;70668;48.81286795;9.14184224;2024-02-23T03:28:14;4.00;;;2.03;;
215;SDS011;70668;48.81286795;9.14184224;2024-02-23T03:30:43;5.47;;;1.43;;
215;SDS011;70668;48.81286795;9.14184224;2024-02-23T03:33:11;3.87;;;1.30;;
215;SDS011;70668;48.81286795;9.14184224;2024-02-23T03:35:42;2.73;;;1.23;;
215;SDS011;70668;48.81286795;9.14184224;2024-02-23T03:38:11;5.03;;;1.50;;
215;SDS011;70668;48.81286795;9.14184224;2024-02-23T03:40:40;4.30;;;1.50;;
215;SDS011;70668;48.81286795;9.14184224;2024-02-23T03:43:09;4.20;;;1.40;;
215;SDS011;70668;48.81286795;9.14184224;2024-02-23T03:45:37;5.37;;;1.40;;
215;SDS011;70668;48.81286795;9.14184224;2024-02-23T03:48:06;3.43;;;1.40;;
215;SDS011;70668;48.81286795;9.14184224;2024-02-23T03:50:37;3.90;;;1.33;;
215;SDS011;70668;48.81286795;9.14184224;2024-02-23T03:53:06;3.13;;;1.30;;
215;SDS011;70668;48.81286795;9.14184224;2024-02-23T03:55:34;4.03;;;1.50;;
215;SDS011;70668;48.81286795;9.14184224;2024-02-23T03:58:03;3.53;;;1.43;;
215;SDS011;70668;48.81286795;9.14184224;2024-02-23T04:00:32;2.70;;;1.30;;
215;SDS011;70668;48.81286795;9.14184224;2024-02-23T04:03:00;7.90;;;1.60;;
215;SDS011;70668;48.81286795;9.14184224;2024-02-23T04:05:29;5.77;;;1.50;;
215;SDS011;70668;48.81286795;9.14184224;2024-02-23T04:08:00;3.23;;;1.37;;
215;SDS011;70668;48.81286795;9.14184224;2024-02-23T04:10:28;3.63;;;1.40;;
215;SDS011;70668;48.81286795;9.14184224;2024-02-23T04:12:57;3.63;;;1.53;;
215;SDS011;70668;48.81286795;9.14184224;2024-02-23T04:15:26;4.37;;;1.43;;
215;SDS011;70668;48.81286795;9.14184224;2024-02-23T04:17:54;4.30;;;1.77;;
215;SDS011;70668;48.81286795;9.14184224;2024-02-23T04:20:23;5.20;;;1.50;;
215;SDS011;70668;48.81286795;9.14184224;2024-02-23T04:22:52;4.03;;;1.50;;
215;SDS011;70668;48.81286795;9.14184224;2024-02-23T04:25:25;5.30;;;1.73;;
215;SDS011;70668;48.81286795;9.14184224;2024-02-23T04:27:54;4.63;;;1.80;;
215;SDS011;70668;48.81286795;9.14184224;2024-02-23T04:30:22;5.07;;;1.60;;
215;SDS011;70668;48.81286795;9.14184224;2024-02-23T04:32:51;3.03;;;1.43;;
215;SDS011;70668;48.81286795;9.14184224;2024-02-23T04:35:20;3.60;;;1.50;;
215;SDS011;70668;48.81286795;9.14184224;2024-02-23T04:37:48;5.60;;;1.40;;
215;SDS011;70668;48.81286795;9.14184224;2024-02-23T04:40:17;5.30;;;1.70;;
215;SDS011;70668;48.81286795;9.14184224;2024-02-23T04:42:48;3.20;;;1.40;;
215;SDS011;70668;48.81286795;9.14184224;2024-02-23T04:45:17;3.20;;;1.50;;
215;SDS011;70668;48.81286795;9.14184224;2024-02-23T04:47:45;6.57;;;1.50;;
215;SDS011;70668;48.81286795;9.14184224;2024-02-23T04:50:14;5.37;;;1.60;;
215;SDS011;70668;48.81286795;9.14184224;2024-02-23T04:52:43;6.13;;;1.60;;
215;SDS011;70668;48.81286795;9.14184224;2024-02-23T04:55:11;6.10;;;1.47;;
215;SDS011;70668;48.81286795;9.14184224;2024-02-23T04:57:40;6.10;;;1.50;;
215;SDS011;70668;48.81286795;9.14184224;2024-02-23T05:00:11;4.43;;;1.50;;
215;SDS011;70668;48.81286795;9.14184224;2024-02-23T05:02:40;5.23;;;1.50;;
215;SDS011;70668;48.81286795;9.14184224;2024-02-23T05:05:09;5.77;;;1.80;;
215;SDS011;70668;48.81286795;9.14184224;2024-02-23T05:07:37;6.37;;;1.70;;
215;SDS011;70668;48.81286795;9.14184224;2024-02-23T05:10:06;4.80;;;1.60;;
215;SDS011;70668;48.81286795;9.14184224;2024-02-23T05:12:35;4.20;;;1.50;;
215;SDS011;70668;48.81286795;9.14184224;2024-02-23T05:15:04;4.97;;;1.73;;
215;SDS011;70668;48.81286795;9.14184224;2024-02-23T05:17:36;3.83;;;1.70;;
215;SDS011;70668;48.81286795;9.14184224;2024-02-23T05:20:05;5.50;;;1.73;;
215;SDS011;70668;48.81286795;9.14184224;2024-02-23T05:22:35;5.70;;;1.53;;
215;SDS011;70668;48.81286795;9.14184224;2024-02-23T05:25:04;5.03;;;1.53;;
215;SDS011;70668;48.81286795;9.14184224;2024-02-23T05:27:33;3.83;;;1.50;;
215;SDS011;70668;48.81286795;9.14184224;2024-02-23T05:30:02;2.60;;;1.40;;
215;SDS011;70668;48.81286795;9.14184224;2024-02-23T05:32:31;5.77;;;1.60;;
215;SDS011;70668;48.81286795;9.14184224;2024-02-23T05:35:03;4.20;;;1.60;;
215;SDS011;70668;48.81286795;9.14184224;2024-02-23T05:37:32;4.90;;;1.70;;
215;SDS011;70668;48.81286795;9.14184224;2024-02-23T05:40:00;4.43;;;1.40;;
215;SDS011;70668;48.81286795;9.14184224;2024-02-23T05:42:31;3.27;;;1.50;;
215;SDS011;70668;48.81286795;9.14184224;2024-02-23T05:45:00;8.20;;;1.60;;
215;SDS011;70668;48.81286795;9.14184224;2024-02-23T05:47:29;5.30;;;2.00;;
215;SDS011;70668;48.81286795;9.14184224;2024-02-23T05:49:58;3.83;;;1.70;;
215;SDS011;70668;48.81286795;9.14184224;2024-02-23T05:52:30;3.50;;;1.50;;
215;SDS011;70668;48.81286795;9.14184224;2024-02-23T05:54:59;4.97;;;1.50;;
215;SDS011;70668;48.81286795;9.14184224;2024-02-23T05:57:28;3.47;;;1.87;;
215;SDS011;70668;48.81286795;9.14184224;2024-02-23T05:59:57;5.40;;;1.80;;
215;SDS011;70668;48.81286795;9.14184224;2024-02-23T06:02:25;5.00;;;1.53;;
215;SDS011;70668;48.81286795;9.14184224;2024-02-23T06:04:54;6.17;;;1.60;;
215;SDS011;70668;48.81286795;9.14184224;2024-02-23T06:07:22;7.03;;;1.97;;
215;SDS011;70668;48.81286795;9.14184224;2024-02-23T06:09:57;5.33;;;1.60;;
215;SDS011;70668;48.81286795;9.14184224;2024-02-23T06:12:26;4.20;;;1.70;;
215;SDS011;70668;48.81286795;9.14184224;2024-02-23T06:14:54;6.23;;;1.83;;
215;SDS011;70668;48.81286795;9.14184224;2024-02-23T06:17:23;3.13;;;1.50;;
215;SDS011;70668;48.81286795;9.14184224;2024-02-23T06:19:52;3.63;;;1.40;;
215;SDS011;70668;48.81286795;9.14184224;2024-02-23T06:22:22;4.03;;;1.60;;
215;SDS011;70668;48.81286795;9.14184224;2024-02-23T06:24:51;11.33;;;1.83;;
215;SDS011;70668;48.81286795;9.14184224;2024-02-23T06:27:22;6.33;;;1.90;;
215;SDS011;70668;48.81286795;9.14184224;2024-02-23T06:29:52;5.50;;;1.87;;
215;SDS011;70668;48.81286795;9.14184224;2024-02-23T06:32:21;5.10;;;1.90;;
215;SDS011;70668;48.81286795;9.14184224;2024-02-23T06:34:49;3.90;;;1.80;;
215;SDS011;70668;48.81286795;9.14184224;2024-02-23T06:37:18;4.13;;;1.70;;
215;SDS011;70668;48.81286795;9.14184224;2024-02-23T06:39:46;6.13;;;1.60;;
215;SDS011;70668;48.81286795;9.14184224;2024-02-23T06:42:22;4.43;;;1.80;;
215;SDS011;70668;48.81286795;9.14184224;2024-02-23T06:44:50;7.10;;;1.80;;
215;SDS011;70668;48.81286795;9.14184224;2024-02-23T06:47:20;4.60;;;2.00;;
215;SDS011;70668;48.81286795;9.14184224;2024-02-23T06:49:49;6.30;;;2.10;;
215;SDS011;70668;48.81286795;9.14184224;2024-02-23T06:52:18;5.70;;;2.00;;
215;SDS011;70668;48.81286795;9.14184224;2024-02-23T06:54:48;7.13;;;1.60;;
215;SDS011;70668;48.81286795;9.14184224;2024-02-23T06:57:17;8.80;;;1.83;;
215;SDS011;70668;48.81286795;9.14184224;2024-02-23T06:59:48;5.20;;;2.13;;
215;SDS011;70668;48.81286795;9.14184224;2024-02-23T07:02:16;6.40;;;2.13;;
215;SDS011;70668;48.81286795;9.14184224;2024-02-23T07:04:45;8.07;;;1.90;;
215;SDS011;70668;48.81286795;9.14184224;2024-02-23T07:07:13;7.10;;;2.10;;
215;SDS011;70668;48.81286795;9.14184224;2024-02-23T07:09:42;5.47;;;2.00;;
215;SDS011;70668;48.81286795;9.14184224;2024-02-23T07:12:11;3.07;;;1.63;;
215;SDS011;70668;48.81286795;9.14184224;2024-02-23T07:14:39;3.50;;;1.70;;
215;SDS011;70668;48.81286795;9.14184224;2024-02-23T07:17:10;4.80;;;1.80;;
215;SDS011;70668;48.81286795;9.14184224;2024-02-23T07:19:39;4.90;;;1.70;;
215;SDS011;70668;48.81286795;9.14184224;2024-02-23T07:22:08;6.53;;;1.80;;
215;SDS011;70668;48.81286795;9.14184224;2024-02-23T07:24:39;7.60;;;1.90;;
215;SDS011;70668;48.81286795;9.14184224;2024-02-23T07:27:07;4.60;;;1.80;;
215;SDS011;70668;48.81286795;9.14184224;2024-02-23T07:29:36;4.83;;;1.90;;
215;SDS011;70668;48.81286795;9.14184224;2024-02-23T07:32:05;5.77;;;1.80;;
215;SDS011;70668;48.81286795;9.14184224;2024-02-23T07:34:36;4.10;;;1.60;;
215;SDS011;70668;48.81286795;9.14184224;2024-02-23T07:37:05;5.23;;;1.90;;
215;SDS011;70668;48.81286795;9.14184224;2024-02-23T07:39:34;7.37;;;1.80;;
215;SDS011;70668;48.81286795;9.14184224;2024-02-23T07:42:03;5.90;;;1.80;;
215;SDS011;70668;48.81286795;9.14184224;2024-02-23T07:44:33;6.57;;;2.10;;
215;SDS011;70668;48.81286795;9.14184224;2024-02-23T07:47:02;3.40;;;1.63;;
215;SDS011;70668;48.81286795;9.14184224;2024-02-23T07:49:31;7.37;;;1.80;;
215;SDS011;70668;48.81286795;9.14184224;2024-02-23T07:52:03;4.07;;;1.67;;
215;SDS011;70668;48.81286795;9.14184224;2024-02-23T07:54:32;3.93;;;1.70;;
215;SDS011;70668;48.81286795;9.14184224;2024-02-23T07:57:01;4.90;;;1.73;;
215;SDS011;70668;48.81286795;9.14184224;2024-02-23T07:59:30;4.93;;;1.80;;
215;SDS011;70668;48.81286795;9.14184224;2024-02-23T08:01:59;11.73;;;2.00;;
215;SDS011;70668;48.81286795;9.14184224;2024-02-23T08:04:27;4.37;;;1.70;;
215;SDS011;70668;48.81286795;9.14184224;2024-02-23T08:06:56;6.20;;;2.40;;
215;SDS011;70668;48.81286795;9.14184224;2024-02-23T08:09:27;5.00;;;2.33;;
215;SDS011;70668;48.81286795;9.14184224;2024-02-23T08:11:55;5.00;;;2.17;;
215;SDS011;70668;48.81286795;9.14184224;2024-02-23T08:14:24;7.60;;;2.10;;
215;SDS011;70668;48.81286795;9.14184224;2024-02-23T08:16:52;4.27;;;1.80;;
215;SDS011;70668;48.81286795;9.14184224;2024-02-23T08:19:21;5.60;;;2.20;;
215;SDS011;70668;48.81286795;9.14184224;2024-02-23T08:21:50;4.70;;;2.00;;
215;SDS011;70668;48.81286795;9.14184224;2024-02-23T08:24:18;6.60;;;2.00;;
215;SDS011;70668;48.81286795;9.14184224;2024-02-23T08:26:50;5.27;;;1.80;;
215;SDS011;70668;48.81286795;9.14184224;2024-02-23T08:29:19;3.97;;;1.80;;
215;SDS011;70668;48.81286795;9.14184224;2024-02-23T08:31:47;5.63;;;1.60;;
215;SDS011;70668;48.81286795;9.14184224;2024-02-23T08:34:16;5.90;;;1.67;;
215;SDS011;70668;48.81286795;9.14184224;2024-02-23T08:36:45;11.67;;;1.90;;
215;SDS011;70668;48.81286795;9.14184224;2024-02-23T08:39:13;4.63;;;1.77;;
215;SDS011;70668;48.81286795;9.14184224;2024-02-23T08:41:42;4.67;;;2.10;;
215;SDS011;70668;48.81286795;9.14184224;2024-02-23T08:44:13;10.80;;;1.90;;
215;SDS011;70668;48.81286795;9.14184224;2024-02-23T08:46:41;4.80;;;1.93;;
215;SDS011;70668;48.81286795;9.14184224;2024-02-23T08:49:10;6.10;;;2.03;;
215;SDS011;70668;48.81286795;9.14184224;2024-02-23T08:51:38;6.30;;;1.70;;
215;SDS011;70668;48.81286795;9.14184224;2024-02-23T08:54:07;5.30;;;2.10;;
215;SDS011;70668;48.81286795;9.14184224;2024-02-23T08:56:36;3.60;;;1.70;;
215;SDS011;70668;48.81286795;9.14184224;2024-02-23T08:59:07;4.00;;;1.90;;
215;SDS011;70668;48.81286795;9.14184224;2024-02-23T09:01:39;8.10;;;1.73;;
215;SDS011;70668;48.81286795;9.14184224;2024-02-23T09:04:09;4.40;;;1.60;;
215;SDS011;70668;48.81286795;9.14184224;2024-02-23T09:06:38;4.40;;;1.97;;
215;SDS011;70668;48.81286795;9.14184224;2024-02-23T09:09:06;2.90;;;1.43;;
215;SDS011;70668;48.81286795;9.14184224;2024-02-23T09:11:35;13.20;;;2.00;;
215;SDS011;70668;48.81286795;9.14184224;2024-02-23T09:14:04;5.17;;;1.70;;
215;SDS011;70668;48.81286795;9.14184224;2024-02-23T09:16:32;5.73;;;2.00;;
215;SDS011;70668;48.81286795;9.14184224;2024-02-23T09:19:03;5.97;;;2.00;;
215;SDS011;70668;48.81286795;9.14184224;2024-02-23T09:21:32;5.83;;;1.70;;
215;SDS011;70668;48.81286795;9.14184224;2024-02-23T09:24:00;7.27;;;1.93;;
215;SDS011;70668;48.81286795;9.14184224;2024-02-23T09:26:29;4.50;;;1.67;;
215;SDS011;70668;48.81286795;9.14184224;2024-02-23T09:28:58;4.33;;;1.80;;
215;SDS011;70668;48.81286795;9.14184224;2024-02-23T09:31:26;6.83;;;1.80;;
215;SDS011;70668;48.81286795;9.14184224;2024-02-23T09:33:56;5.90;;;1.70;;
215;SDS011;70668;48.81286795;9.14184224;2024-02-23T09:36:28;8.10;;;2.73;;
215;SDS011;70668;48.81286795;9.14184224;2024-02-23T09:38:56;5.87;;;2.07;;
215;SDS011;70668;48.81286795;9.14184224;2024-02-23T09:41:27;5.27;;;1.90;;
215;SDS011;70668;48.81286795;9.14184224;2024-02-23T09:43:55;4.03;;;1.70;;
215;SDS011;70668;48.81286795;9.14184224;2024-02-23T09:46:26;6.43;;;1.70;;
215;SDS011;70668;48.81286795;9.14184224;2024-02-23T09:48:56;7.20;;;1.83;;
215;SDS011;70668;48.81286795;9.14184224;2024-02-23T09:51:25;5.10;;;1.60;;
215;SDS011;70668;48.81286795;9.14184224;2024-02-23T09:53:56;5.00;;;1.53;;
215;SDS011;70668;48.81286795;9.14184224;2024-02-23T09:56:26;11.17;;;1.90;;
215;SDS011;70668;48.81286795;9.14184224;2024-02-23T09:58:59;5.90;;;1.70;;
215;SDS011;70668;48.81286795;9.14184224;2024-02-23T10:01:30;7.77;;;1.87;;
215;SDS011;70668;48.81286795;9.14184224;2024-02-23T10:04:00;4.23;;;1.50;;
215;SDS011;70668;48.81286795;9.14184224;2024-02-23T10:06:32;5.73;;;2.00;;
215;SDS011;70668;48.81286795;9.14184224;2024-02-23T10:09:00;4.50;;;1.60;;
215;SDS011;70668;48.81286795;9.14184224;2024-02-23T10:11:30;5.57;;;1.93;;
215;SDS011;70668;48.81286795;9.14184224;2024-02-23T10:13:59;7.37;;;2.20;;
215;SDS011;70668;48.81286795;9.14184224;2024-02-23T10:16:28;3.77;;;1.80;;
215;SDS011;70668;48.81286795;9.14184224;2024-02-23T10:18:57;6.30;;;1.50;;
215;SDS011;70668;48.81286795;9.14184224;2024-02-23T10:21:25;4.80;;;1.87;;
215;SDS011;70668;48.81286795;9.14184224;2024-02-23T10:23:56;5.63;;;1.83;;
215;SDS011;70668;48.81286795;9.14184224;2024-02-23T10:26:26;7.37;;;1.80;;
215;SDS011;70668;48.81286795;9.14184224;2024-02-23T10:28:55;4.67;;;1.63;;
215;SDS011;70668;48.81286795;9.14184224;2024-02-23T10:31:24;5.87;;;1.73;;
215;SDS011;70668;48.81286795;9.14184224;2024-02-23T10:33:52;6.30;;;1.87;;
215;SDS011;70668;48.81286795;9.14184224;2024-02-23T10:36:25;8.43;;;2.00;;
215;SDS011;70668;48.81286795;9.14184224;2024-02-23T10:39:00;7.93;;;1.80;;
215;SDS011;70668;48.81286795;9.14184224;2024-02-23T10:41:33;6.90;;;1.80;;
215;SDS011;70668;48.81286795;9.14184224;2024-02-23T10:44:03;7.27;;;1.70;;
215;SDS011;70668;48.81286795;9.14184224;2024-02-23T10:46:32;6.83;;;1.80;;
215;SDS011;70668;48.81286795;9.14184224;2024-02-23T10:49:00;9.47;;;2.10;;
215;SDS011;70668;48.81286795;9.14184224;2024-02-23T10:51:32;5.67;;;1.80;;
215;SDS011;70668;48.81286795;9.14184224;2024-02-23T10:54:05;5.60;;;1.97;;
215;SDS011;70668;48.81286795;9.14184224;2024-02-23T10:56:34;6.00;;;2.00;;
215;SDS011;70668;48.81286795;9.14184224;2024-02-23T10:59:02;9.37;;;1.90;;
215;SDS011;70668;48.81286795;9.14184224;2024-02-23T11:01:32;8.03;;;2.03;;
215;SDS011;70668;48.81286795;9.14184224;2024-02-23T11:04:03;6.67;;;1.70;;
215;SDS011;70668;48.81286795;9.14184224;2024-02-23T11:06:33;5.70;;;1.60;;
215;SDS011;70668;48.81286795;9.14184224;2024-02-23T11:09:08;7.20;;;1.83;;
215;SDS011;70668;48.81286795;9.14184224;2024-02-23T11:11:40;6.83;;;2.00;;
215;SDS011;70668;48.81286795;9.14184224;2024-02-23T11:14:28;6.97;;;1.77;;
215;SDS011;70668;48.81286795;9.14184224;2024-02-23T11:16:58;7.43;;;1.60;;
215;SDS011;70668;48.81286795;9.14184224;2024-02-23T11:19:33;6.80;;;1.63;;
215;SDS011;70668;48.81286795;9.14184224;2024-02-23T11:22:03;9.70;;;1.70;;
215;SDS011;70668;48.81286795;9.14184224;2024-02-23T11:24:34;4.20;;;1.50;;
215;SDS011;70668;48.81286795;9.14184224;2024-02-23T11:27:13;5.20;;;1.80;;
215;SDS011;70668;48.81286795;9.14184224;2024-02-23T11:29:43;11.60;;;2.10;;
215;SDS011;70668;48.81286795;9.14184224;2024-02-23T11:32:14;5.93;;;1.93;;
215;SDS011;70668;48.81286795;9.14184224;2024-02-23T11:34:53;13.60;;;2.03;;
215;SDS011;70668;48.81286795;9.14184224;2024-02-23T11:37:23;5.83;;;2.00;;
215;SDS011;70668;48.81286795;9.14184224;2024-02-23T11:39:58;8.33;;;2.50;;
215;SDS011;70668;48.81286795;9.14184224;2024-02-23T11:42:30;8.60;;;1.60;;
215;SDS011;70668;48.81286795;9.14184224;2024-02-23T11:44:59;7.43;;;1.60;;
215;SDS011;70668;48.81286795;9.14184224;2024-02-23T11:47:29;9.03;;;1.90;;
215;SDS011;70668;48.81286795;9.14184224;2024-02-23T11:49:57;4.30;;;1.60;;
215;SDS011;70668;48.81286795;9.14184224;2024-02-23T11:52:26;5.27;;;1.77;;
215;SDS011;70668;48.81286795;9.14184224;2024-02-23T11:54:58;8.60;;;2.07;;
215;SDS011;70668;48.81286795;9.14184224;2024-02-23T11:57:27;7.70;;;1.80;;
215;SDS011;70668;48.81286795;9.14184224;2024-02-23T11:59:56;5.67;;;1.80;;
215;SDS011;70668;48.81286795;9.14184224;2024-02-23T12:02:24;6.23;;;1.80;;
215;SDS011;70668;48.81286795;9.14184224;2024-02-23T12:04:53;7.60;;;1.73;;
215;SDS011;70668;48.81286795;9.14184224;2024-02-23T12:07:21;4.30;;;1.70;;
215;SDS011;70668;48.81286795;9.14184224;2024-02-23T12:09:51;7.20;;;1.90;;
215;SDS011;70668;48.81286795;9.14184224;2024-02-23T12:12:22;8.53;;;1.80;;
215;SDS011;70668;48.81286795;9.14184224;2024-02-23T12:14:51;4.10;;;1.70;;
215;SDS011;70668;48.81286795;9.14184224;2024-02-23T12:17:20;5.73;;;1.90;;
215;SDS011;70668;48.81286795;9.14184224;2024-02-23T12:19:49;10.77;;;1.87;;
215;SDS011;70668;48.81286795;9.14184224;2024-02-23T12:22:17;6.60;;;1.90;;
215;SDS011;70668;48.81286795;9.14184224;2024-02-23T12:24:46;7.70;;;2.00;;
215;SDS011;70668;48.81286795;9.14184224;2024-02-23T12:27:16;8.97;;;1.97;;
215;SDS011;70668;48.81286795;9.14184224;2024-02-23T12:29:53;7.93;;;1.70;;
215;SDS011;70668;48.81286795;9.14184224;2024-02-23T12:32:22;5.33;;;1.80;;
215;SDS011;70668;48.81286795;9.14184224;2024-02-23T12:34:51;8.80;;;2.00;;
215;SDS011;70668;48.81286795;9.14184224;2024-02-23T12:37:20;7.03;;;2.03;;
215;SDS011;70668;48.81286795;9.14184224;2024-02-23T12:39:49;6.53;;;1.73;;
215;SDS011;70668;48.81286795;9.14184224;2024-02-23T12:42:18;11.40;;;2.00;;
215;SDS011;70668;48.81286795;9.14184224;2024-02-23T12:44:47;5.87;;;1.77;;
215;SDS011;70668;48.81286795;9.14184224;2024-02-23T12:47:18;8.90;;;2.00;;
215;SDS011;70668;48.81286795;9.14184224;2024-02-23T12:49:46;8.93;;;1.90;;
215;SDS011;70668;48.81286795;9.14184224;2024-02-23T12:52:15;6.37;;;2.10;;
215;SDS011;70668;48.81286795;9.14184224;2024-02-23T12:54:43;6.67;;;1.90;;
215;SDS011;70668;48.81286795;9.14184224;2024-02-23T12:57:12;8.63;;;2.00;;
215;SDS011;70668;48.81286795;9.14184224;2024-02-23T12:59:40;7.60;;;2.10;;
215;SDS011;70668;48.81286795;9.14184224;2024-02-23T13:02:09;9.20;;;2.10;;
215;SDS011;70668;48.81286795;9.14184224;2024-02-23T13:04:43;7.03;;;1.90;;
215;SDS011;70668;48.81286795;9.14184224;2024-02-23T13:07:14;4.67;;;1.80;;
215;SDS011;70668;48.81286795;9.14184224;2024-02-23T13:09:43;6.87;;;1.57;;
215;SDS011;70668;48.81286795;9.14184224;2024-02-23T13:12:11;8.00;;;2.20;;
215;SDS011;70668;48.81286795;9.14184224;2024-02-23T13:14:40;6.53;;;1.80;;
215;SDS011;70668;48.81286795;9.14184224;2024-02-23T13:17:09;7.30;;;2.03;;
215;SDS011;70668;48.81286795;9.14184224;2024-02-23T13:19:37;5.10;;;1.83;;
215;SDS011;70668;48.81286795;9.14184224;2024-02-23T13:22:09;7.10;;;2.10;;
215;SDS011;70668;48.81286795;9.14184224;2024-02-23T13:24:38;7.00;;;1.90;;